Kezdőlap
METAR-TAF:

METAR-TAF

Repülőterek :

Kuvaitváros, Kuvait

földrajzi szélesség: 29-13N, földrajzi hosszúság: 047-59E, magasság: 55 m

Jelenlegi meteorológiai megfigyelések

A jelentés 2 órával és 17 perccel ezelõtt készült, 14:00 UTC
Északnyugati szél 10 kt
Hőmérséklet 44°C
Páratartalom 10%
Légköri nyomás 995 hPa
Látótávolság: 7000 m
Derült ég

METAR: OKBK 181400Z 31010KT 7000 SKC 44/05 Q0995 NOSIG

Idő: 19:17 (16:17 UTC)

Előrejelzés

A jelentés 5 órával és 32 perccel ezelõtt készült, 10:45 UTC
Az előrejelzés 18-én 12 óra UTC és 19-én 18 óra UTC között érvényes
Észak-északnyugati szél 10 kt széllökések: 20 kt
Látótávolság: 7000 m
Derült ég
18-én 12 óra UTC és 18-én 18 óra UTC között ideiglenes
Különbözõ irányokból fújó szél 3 kt
Látótávolság: 3000 m
Száraz légköri homály

TAF: OKBK 181045Z 1812/1918 34010G20KT 7000 SKC TEMPO 1812/1818 VRB03KT 3000 HZ

Meteorológiai megfigyelések és előrejelzések több, mint 4000 repülőtéren (METAR és TAF jelentéseket).

A térképen piros és sárga pontok jelzik az elérhető meteorológiai állomásokat.

Mozgassa az egeret a pont fölött, hogy megjelenjen az állomás neve.

Azután kattintson az időjárási megfigyelések és előrejelzések megtekintéséhez.

A térkép megváltoztatása: kattintson a fekete keresztel jelölt zöld gombra ráközelítéshez, a vonallal jelölt zöld gombra távolításhoz, vagy a zöld nyilakra a szomszédos térképek eléréséhez.


METAR-TAF: